sensor_id;sensor_type;location;lat;lon;timestamp;pressure;altitude;pressure_sealevel;temperature;humidity
68941;BME280;55982;51.476;7.552;2023-05-10T00:01:39;99016.34;;;13.51;100.00
68941;BME280;55982;51.476;7.552;2023-05-10T00:04:05;99010.31;;;13.49;100.00
68941;BME280;55982;51.476;7.552;2023-05-10T00:06:31;99010.50;;;13.46;100.00
68941;BME280;55982;51.476;7.552;2023-05-10T00:08:56;99012.94;;;13.49;100.00
68941;BME280;55982;51.476;7.552;2023-05-10T00:11:22;98993.19;;;13.57;100.00
68941;BME280;55982;51.476;7.552;2023-05-10T00:13:47;99002.50;;;13.63;100.00
68941;BME280;55982;51.476;7.552;2023-05-10T00:16:13;99006.06;;;13.62;100.00
68941;BME280;55982;51.476;7.552;2023-05-10T00:18:39;99013.34;;;13.57;100.00
68941;BME280;55982;51.476;7.552;2023-05-10T00:21:05;99006.59;;;13.53;100.00
68941;BME280;55982;51.476;7.552;2023-05-10T00:23:30;99006.44;;;13.56;100.00
68941;BME280;55982;51.476;7.552;2023-05-10T00:25:55;99004.72;;;13.55;100.00
68941;BME280;55982;51.476;7.552;2023-05-10T00:28:21;99009.88;;;13.56;100.00
68941;BME280;55982;51.476;7.552;2023-05-10T00:30:46;99003.03;;;13.54;100.00
68941;BME280;55982;51.476;7.552;2023-05-10T00:33:12;98997.44;;;13.60;100.00
68941;BME280;55982;51.476;7.552;2023-05-10T00:35:37;99013.97;;;13.62;100.00
68941;BME280;55982;51.476;7.552;2023-05-10T00:38:03;98995.72;;;13.59;100.00
68941;BME280;55982;51.476;7.552;2023-05-10T00:40:29;99000.13;;;13.58;100.00
68941;BME280;55982;51.476;7.552;2023-05-10T00:42:56;99001.84;;;13.59;100.00
68941;BME280;55982;51.476;7.552;2023-05-10T00:45:21;99006.44;;;13.56;100.00
68941;BME280;55982;51.476;7.552;2023-05-10T00:47:47;98997.59;;;13.57;100.00
68941;BME280;55982;51.476;7.552;2023-05-10T00:50:13;99003.97;;;13.53;100.00
68941;BME280;55982;51.476;7.552;2023-05-10T00:52:39;99001.84;;;13.59;100.00
68941;BME280;55982;51.476;7.552;2023-05-10T00:55:06;99002.69;;;13.60;100.00
68941;BME280;55982;51.476;7.552;2023-05-10T00:57:31;99002.69;;;13.60;100.00
68941;BME280;55982;51.476;7.552;2023-05-10T00:59:57;99001.84;;;13.59;100.00
68941;BME280;55982;51.476;7.552;2023-05-10T01:02:23;99000.81;;;13.62;100.00
68941;BME280;55982;51.476;7.552;2023-05-10T01:04:49;99009.22;;;13.53;100.00
68941;BME280;55982;51.476;7.552;2023-05-10T01:07:14;99005.88;;;13.65;100.00
68941;BME280;55982;51.476;7.552;2023-05-10T01:09:40;99001.84;;;13.59;100.00
68941;BME280;55982;51.476;7.552;2023-05-10T01:12:06;99005.78;;;13.66;100.00
68941;BME280;55982;51.476;7.552;2023-05-10T01:14:32;99006.53;;;13.68;100.00
68941;BME280;55982;51.476;7.552;2023-05-10T01:16:58;99003.44;;;13.62;100.00
68941;BME280;55982;51.476;7.552;2023-05-10T01:19:27;99016.59;;;13.62;100.00
68941;BME280;55982;51.476;7.552;2023-05-10T01:28:09;99004.94;;;13.66;100.00
68941;BME280;55982;51.476;7.552;2023-05-10T01:34:13;99010.13;;;13.67;100.00
68941;BME280;55982;51.476;7.552;2023-05-10T01:37:07;99016.09;;;13.55;100.00
68941;BME280;55982;51.476;7.552;2023-05-10T01:42:10;99024.09;;;13.68;100.00
68941;BME280;55982;51.476;7.552;2023-05-10T01:47:07;99029.75;;;13.76;100.00
68941;BME280;55982;51.476;7.552;2023-05-10T01:49:42;99022.81;;;13.75;100.00
68941;BME280;55982;51.476;7.552;2023-05-10T01:52:11;99024.50;;;13.76;100.00
68941;BME280;55982;51.476;7.552;2023-05-10T01:54:44;99022.97;;;13.72;100.00
68941;BME280;55982;51.476;7.552;2023-05-10T01:57:13;99021.88;;;13.76;100.00
68941;BME280;55982;51.476;7.552;2023-05-10T01:59:40;99021.97;;;13.74;100.00
68941;BME280;55982;51.476;7.552;2023-05-10T02:02:08;99028.59;;;13.66;100.00
68941;BME280;55982;51.476;7.552;2023-05-10T02:04:37;99029.63;;;13.63;100.00
68941;BME280;55982;51.476;7.552;2023-05-10T02:07:04;99023.00;;;13.56;100.00
68941;BME280;55982;51.476;7.552;2023-05-10T02:09:32;99027.44;;;13.56;100.00
68941;BME280;55982;51.476;7.552;2023-05-10T02:11:58;99035.03;;;13.60;100.00
68941;BME280;55982;51.476;7.552;2023-05-10T02:14:25;99029.31;;;13.54;100.00
68941;BME280;55982;51.476;7.552;2023-05-10T02:16:53;99036.09;;;13.58;100.00
68941;BME280;55982;51.476;7.552;2023-05-10T02:19:21;99034.03;;;13.63;100.00
68941;BME280;55982;51.476;7.552;2023-05-10T02:21:49;99037.22;;;13.68;100.00
68941;BME280;55982;51.476;7.552;2023-05-10T02:24:16;99036.84;;;13.60;100.00
68941;BME280;55982;51.476;7.552;2023-05-10T02:26:44;99038.88;;;13.55;100.00
68941;BME280;55982;51.476;7.552;2023-05-10T02:29:11;99035.13;;;13.59;100.00
68941;BME280;55982;51.476;7.552;2023-05-10T02:31:37;99036.09;;;13.58;100.00
68941;BME280;55982;51.476;7.552;2023-05-10T02:34:04;99041.84;;;13.49;100.00
68941;BME280;55982;51.476;7.552;2023-05-10T02:36:31;99042.81;;;13.48;100.00
68941;BME280;55982;51.476;7.552;2023-05-10T02:38:58;99047.28;;;13.46;100.00
68941;BME280;55982;51.476;7.552;2023-05-10T02:41:27;99045.69;;;13.43;100.00
68941;BME280;55982;51.476;7.552;2023-05-10T02:43:57;99052.72;;;13.43;100.00
68941;BME280;55982;51.476;7.552;2023-05-10T02:46:24;99046.69;;;13.41;100.00
68941;BME280;55982;51.476;7.552;2023-05-10T02:48:49;99047.66;;;13.24;100.00
68941;BME280;55982;51.476;7.552;2023-05-10T02:51:16;99052.81;;;13.26;100.00
68941;BME280;55982;51.476;7.552;2023-05-10T02:53:45;99049.38;;;13.25;100.00
68941;BME280;55982;51.476;7.552;2023-05-10T02:56:15;99053.91;;;13.22;100.00
68941;BME280;55982;51.476;7.552;2023-05-10T02:58:42;99055.97;;;13.17;100.00
68941;BME280;55982;51.476;7.552;2023-05-10T03:01:07;99055.09;;;13.16;100.00
68941;BME280;55982;51.476;7.552;2023-05-10T03:03:33;99058.06;;;13.26;100.00
68941;BME280;55982;51.476;7.552;2023-05-10T03:05:59;99061.50;;;12.95;100.00
68941;BME280;55982;51.476;7.552;2023-05-10T03:08:24;99062.56;;;12.93;100.00
68941;BME280;55982;51.476;7.552;2023-05-10T03:16:45;99070.06;;;12.99;100.00
68941;BME280;55982;51.476;7.552;2023-05-10T03:19:31;99063.31;;;12.95;100.00
68941;BME280;55982;51.476;7.552;2023-05-10T03:21:59;99065.25;;;12.91;100.00
68941;BME280;55982;51.476;7.552;2023-05-10T03:24:29;99072.19;;;12.92;100.00
68941;BME280;55982;51.476;7.552;2023-05-10T03:26:56;99070.25;;;12.96;100.00
68941;BME280;55982;51.476;7.552;2023-05-10T03:29:26;99063.03;;;12.99;100.00
68941;BME280;55982;51.476;7.552;2023-05-10T03:31:51;99076.25;;;12.98;100.00
68941;BME280;55982;51.476;7.552;2023-05-10T03:34:16;99079.56;;;13.01;100.00
68941;BME280;55982;51.476;7.552;2023-05-10T03:36:42;99085.09;;;12.97;100.00
68941;BME280;55982;51.476;7.552;2023-05-10T03:39:07;99085.22;;;12.94;100.00
68941;BME280;55982;51.476;7.552;2023-05-10T03:41:33;99078.31;;;12.93;100.00
68941;BME280;55982;51.476;7.552;2023-05-10T03:43:58;99077.97;;;12.83;100.00
68941;BME280;55982;51.476;7.552;2023-05-10T03:46:24;99082.34;;;12.82;100.00
68941;BME280;55982;51.476;7.552;2023-05-10T03:48:49;99082.34;;;12.82;100.00
68941;BME280;55982;51.476;7.552;2023-05-10T03:51:14;99087.59;;;12.82;100.00
68941;BME280;55982;51.476;7.552;2023-05-10T03:53:40;99092.53;;;12.88;100.00
68941;BME280;55982;51.476;7.552;2023-05-10T03:56:05;99093.19;;;12.92;100.00
68941;BME280;55982;51.476;7.552;2023-05-10T03:58:30;99098.66;;;13.05;100.00
68941;BME280;55982;51.476;7.552;2023-05-10T04:00:56;99088.28;;;13.02;100.00
68941;BME280;55982;51.476;7.552;2023-05-10T04:03:21;99098.94;;;12.99;100.00
68941;BME280;55982;51.476;7.552;2023-05-10T04:05:47;99093.69;;;12.99;100.00
68941;BME280;55982;51.476;7.552;2023-05-10T04:08:12;99097.50;;;12.93;100.00
68941;BME280;55982;51.476;7.552;2023-05-10T04:10:37;99103.75;;;13.08;100.00
68941;BME280;55982;51.476;7.552;2023-05-10T04:13:03;99101.50;;;13.00;100.00
68941;BME280;55982;51.476;7.552;2023-05-10T04:15:28;99109.00;;;13.08;100.00
68941;BME280;55982;51.476;7.552;2023-05-10T04:17:54;99109.00;;;13.08;100.00
68941;BME280;55982;51.476;7.552;2023-05-10T04:20:19;99105.34;;;13.10;100.00
68941;BME280;55982;51.476;7.552;2023-05-10T04:22:44;99097.13;;;13.16;100.00
68941;BME280;55982;51.476;7.552;2023-05-10T04:25:10;99098.81;;;13.02;100.00
68941;BME280;55982;51.476;7.552;2023-05-10T04:27:35;99096.97;;;13.04;100.00
68941;BME280;55982;51.476;7.552;2023-05-10T04:30:01;99102.56;;;13.13;100.00
68941;BME280;55982;51.476;7.552;2023-05-10T04:32:27;99103.81;;;13.22;100.00
68941;BME280;55982;51.476;7.552;2023-05-10T04:34:53;99093.75;;;13.14;100.00
68941;BME280;55982;51.476;7.552;2023-05-10T04:37:18;99105.97;;;13.31;100.00
68941;BME280;55982;51.476;7.552;2023-05-10T04:39:43;99101.88;;;13.10;100.00
68941;BME280;55982;51.476;7.552;2023-05-10T04:42:09;99105.44;;;13.09;100.00
68941;BME280;55982;51.476;7.552;2023-05-10T04:44:34;99104.78;;;13.21;100.00
68941;BME280;55982;51.476;7.552;2023-05-10T04:47:00;99106.81;;;13.16;100.00
68941;BME280;55982;51.476;7.552;2023-05-10T04:49:27;99105.53;;;13.23;100.00
68941;BME280;55982;51.476;7.552;2023-05-10T04:51:53;99107.06;;;13.27;100.00
68941;BME280;55982;51.476;7.552;2023-05-10T04:54:18;99116.81;;;13.25;100.00
68941;BME280;55982;51.476;7.552;2023-05-10T04:56:43;99111.88;;;13.19;100.00
68941;BME280;55982;51.476;7.552;2023-05-10T04:59:09;99111.56;;;13.25;100.00
68941;BME280;55982;51.476;7.552;2023-05-10T05:01:34;99114.19;;;13.25;100.00
68941;BME280;55982;51.476;7.552;2023-05-10T05:03:59;99118.00;;;13.35;100.00
68941;BME280;55982;51.476;7.552;2023-05-10T05:06:25;99127.47;;;13.22;100.00
68941;BME280;55982;51.476;7.552;2023-05-10T05:08:52;99118.81;;;13.20;100.00
68941;BME280;55982;51.476;7.552;2023-05-10T05:11:17;99126.69;;;13.20;100.00
68941;BME280;55982;51.476;7.552;2023-05-10T05:13:43;99132.81;;;13.20;100.00
68941;BME280;55982;51.476;7.552;2023-05-10T05:16:08;99135.78;;;13.30;100.00
68941;BME280;55982;51.476;7.552;2023-05-10T05:18:33;99137.28;;;13.18;100.00
68941;BME280;55982;51.476;7.552;2023-05-10T05:20:59;99139.16;;;13.32;100.00
68941;BME280;55982;51.476;7.552;2023-05-10T05:23:24;99135.44;;;13.36;100.00
68941;BME280;55982;51.476;7.552;2023-05-10T05:25:53;99134.84;;;13.31;100.00
68941;BME280;55982;51.476;7.552;2023-05-10T05:28:21;99144.59;;;13.29;100.00
68941;BME280;55982;51.476;7.552;2023-05-10T05:30:46;99144.34;;;13.49;100.00
68941;BME280;55982;51.476;7.552;2023-05-10T05:33:13;99137.50;;;13.46;100.00
68941;BME280;55982;51.476;7.552;2023-05-10T05:35:39;99144.94;;;13.54;100.00
68941;BME280;55982;51.476;7.552;2023-05-10T05:38:04;99153.06;;;13.65;100.00
68941;BME280;55982;51.476;7.552;2023-05-10T05:40:30;99148.00;;;13.62;100.00
68941;BME280;55982;51.476;7.552;2023-05-10T05:42:55;99152.06;;;13.67;100.00
68941;BME280;55982;51.476;7.552;2023-05-10T05:45:21;99150.66;;;13.76;100.00
68941;BME280;55982;51.476;7.552;2023-05-10T05:47:46;99151.97;;;13.69;100.00
68941;BME280;55982;51.476;7.552;2023-05-10T05:50:12;99151.00;;;13.70;100.00
68941;BME280;55982;51.476;7.552;2023-05-10T05:52:37;99149.81;;;13.75;100.00
68941;BME280;55982;51.476;7.552;2023-05-10T05:55:03;99147.78;;;13.81;100.00
68941;BME280;55982;51.476;7.552;2023-05-10T05:57:28;99146.78;;;13.83;100.00
68941;BME280;55982;51.476;7.552;2023-05-10T05:59:54;99146.25;;;13.92;100.00
68941;BME280;55982;51.476;7.552;2023-05-10T06:02:19;99144.38;;;13.94;100.00
68941;BME280;55982;51.476;7.552;2023-05-10T06:04:44;99148.91;;;14.06;100.00
68941;BME280;55982;51.476;7.552;2023-05-10T06:07:10;99161.34;;;14.04;100.00
68941;BME280;55982;51.476;7.552;2023-05-10T06:09:35;99166.41;;;14.07;100.00
68941;BME280;55982;51.476;7.552;2023-05-10T06:12:00;99168.50;;;14.16;100.00
68941;BME280;55982;51.476;7.552;2023-05-10T06:14:26;99178.41;;;14.27;100.00
68941;BME280;55982;51.476;7.552;2023-05-10T06:16:52;99185.03;;;14.18;100.00
68941;BME280;55982;51.476;7.552;2023-05-10T06:19:17;99182.81;;;14.26;100.00
68941;BME280;55982;51.476;7.552;2023-05-10T06:21:43;99189.19;;;14.22;100.00
68941;BME280;55982;51.476;7.552;2023-05-10T06:24:08;99178.56;;;14.39;100.00
68941;BME280;55982;51.476;7.552;2023-05-10T06:26:33;99184.31;;;14.46;100.00
68941;BME280;55982;51.476;7.552;2023-05-10T06:28:59;99182.91;;;14.40;100.00
68941;BME280;55982;51.476;7.552;2023-05-10T06:31:24;99180.81;;;14.45;100.00
68941;BME280;55982;51.476;7.552;2023-05-10T06:33:50;99187.44;;;14.66;100.00
68941;BME280;55982;51.476;7.552;2023-05-10T06:36:15;99190.13;;;14.81;100.00
68941;BME280;55982;51.476;7.552;2023-05-10T06:38:41;99193.31;;;15.14;100.00
68941;BME280;55982;51.476;7.552;2023-05-10T06:41:06;99184.00;;;15.22;100.00
68941;BME280;55982;51.476;7.552;2023-05-10T06:43:31;99185.22;;;15.03;100.00
68941;BME280;55982;51.476;7.552;2023-05-10T06:45:57;99177.13;;;14.92;100.00
68941;BME280;55982;51.476;7.552;2023-05-10T06:48:22;99182.59;;;14.89;100.00
68941;BME280;55982;51.476;7.552;2023-05-10T06:50:48;99182.00;;;14.69;100.00
68941;BME280;55982;51.476;7.552;2023-05-10T06:53:13;99196.19;;;14.81;100.00
68941;BME280;55982;51.476;7.552;2023-05-10T06:55:39;99199.88;;;14.93;100.00
68941;BME280;55982;51.476;7.552;2023-05-10T06:58:04;99205.72;;;14.84;100.00
68941;BME280;55982;51.476;7.552;2023-05-10T07:00:30;99207.28;;;14.72;100.00
68941;BME280;55982;51.476;7.552;2023-05-10T07:02:55;99203.94;;;14.84;100.00
68941;BME280;55982;51.476;7.552;2023-05-10T07:05:21;99210.59;;;14.61;100.00
68941;BME280;55982;51.476;7.552;2023-05-10T07:07:46;99210.88;;;14.71;100.00
68941;BME280;55982;51.476;7.552;2023-05-10T07:10:12;99207.28;;;14.72;100.00
68941;BME280;55982;51.476;7.552;2023-05-10T07:12:37;99211.53;;;14.75;100.00
68941;BME280;55982;51.476;7.552;2023-05-10T07:15:03;99217.09;;;14.84;100.00
68941;BME280;55982;51.476;7.552;2023-05-10T07:17:29;99222.88;;;14.91;100.00
68941;BME280;55982;51.476;7.552;2023-05-10T07:19:54;99217.97;;;15.27;100.00
68941;BME280;55982;51.476;7.552;2023-05-10T07:22:20;99198.16;;;15.76;100.00
68941;BME280;55982;51.476;7.552;2023-05-10T07:24:45;99202.19;;;16.87;100.00
68941;BME280;55982;51.476;7.552;2023-05-10T07:27:11;99191.19;;;17.79;100.00
68941;BME280;55982;51.476;7.552;2023-05-10T07:29:36;99184.22;;;18.25;100.00
68941;BME280;55982;51.476;7.552;2023-05-10T07:32:02;99179.69;;;18.39;100.00
68941;BME280;55982;51.476;7.552;2023-05-10T07:34:27;99176.84;;;17.94;100.00
68941;BME280;55982;51.476;7.552;2023-05-10T07:36:55;99181.03;;;17.73;100.00
68941;BME280;55982;51.476;7.552;2023-05-10T07:39:20;99174.56;;;18.48;100.00
68941;BME280;55982;51.476;7.552;2023-05-10T07:41:45;99175.94;;;17.83;100.00
68941;BME280;55982;51.476;7.552;2023-05-10T07:44:11;99180.50;;;18.52;100.00
68941;BME280;55982;51.476;7.552;2023-05-10T07:46:36;99169.28;;;19.05;100.00
68941;BME280;55982;51.476;7.552;2023-05-10T07:49:04;99171.44;;;19.44;100.00
68941;BME280;55982;51.476;7.552;2023-05-10T07:51:30;99166.78;;;19.48;100.00
68941;BME280;55982;51.476;7.552;2023-05-10T07:53:55;99173.72;;;20.14;100.00
68941;BME280;55982;51.476;7.552;2023-05-10T07:56:27;99181.22;;;20.08;100.00
68941;BME280;55982;51.476;7.552;2023-05-10T07:58:55;99167.59;;;19.48;100.00
68941;BME280;55982;51.476;7.552;2023-05-10T08:01:21;99171.41;;;19.00;100.00
68941;BME280;55982;51.476;7.552;2023-05-10T08:03:47;99182.13;;;20.30;100.00
68941;BME280;55982;51.476;7.552;2023-05-10T08:06:12;99177.03;;;20.38;100.00
68941;BME280;55982;51.476;7.552;2023-05-10T08:08:38;99180.44;;;20.29;100.00
68941;BME280;55982;51.476;7.552;2023-05-10T08:11:03;99179.63;;;19.74;100.00
68941;BME280;55982;51.476;7.552;2023-05-10T08:13:29;99183.22;;;18.85;100.00
68941;BME280;55982;51.476;7.552;2023-05-10T08:15:54;99185.09;;;18.61;100.00
68941;BME280;55982;51.476;7.552;2023-05-10T08:18:19;99193.25;;;17.99;100.00
68941;BME280;55982;51.476;7.552;2023-05-10T08:20:45;99197.53;;;17.53;100.00
68941;BME280;55982;51.476;7.552;2023-05-10T08:23:12;99201.00;;;17.16;100.00
68941;BME280;55982;51.476;7.552;2023-05-10T08:25:38;99202.50;;;17.20;100.00
68941;BME280;55982;51.476;7.552;2023-05-10T08:28:03;99203.16;;;17.11;100.00
68941;BME280;55982;51.476;7.552;2023-05-10T08:30:28;99205.75;;;17.61;100.00
68941;BME280;55982;51.476;7.552;2023-05-10T08:32:54;99203.44;;;18.16;100.00
68941;BME280;55982;51.476;7.552;2023-05-10T08:35:19;99208.31;;;19.25;100.00
68941;BME280;55982;51.476;7.552;2023-05-10T08:37:44;99200.16;;;19.61;100.00
68941;BME280;55982;51.476;7.552;2023-05-10T08:40:11;99201.88;;;20.48;100.00
68941;BME280;55982;51.476;7.552;2023-05-10T08:42:39;99203.72;;;19.93;100.00
68941;BME280;55982;51.476;7.552;2023-05-10T08:45:07;99206.66;;;19.68;100.00
68941;BME280;55982;51.476;7.552;2023-05-10T08:47:33;99208.34;;;20.96;100.00
68941;BME280;55982;51.476;7.552;2023-05-10T08:49:59;99211.28;;;20.93;100.00
68941;BME280;55982;51.476;7.552;2023-05-10T08:52:26;99218.78;;;20.47;100.00
68941;BME280;55982;51.476;7.552;2023-05-10T08:54:53;99213.88;;;19.11;100.00
68941;BME280;55982;51.476;7.552;2023-05-10T08:57:18;99219.72;;;18.23;100.00
68941;BME280;55982;51.476;7.552;2023-05-10T08:59:44;99222.69;;;17.95;100.00
68941;BME280;55982;51.476;7.552;2023-05-10T09:02:10;99227.78;;;17.85;100.00
68941;BME280;55982;51.476;7.552;2023-05-10T09:04:36;99237.34;;;17.75;100.00
68941;BME280;55982;51.476;7.552;2023-05-10T09:07:02;99231.72;;;17.80;100.00
68941;BME280;55982;51.476;7.552;2023-05-10T09:09:27;99233.09;;;17.85;100.00
68941;BME280;55982;51.476;7.552;2023-05-10T09:11:54;99232.88;;;18.36;100.00
68941;BME280;55982;51.476;7.552;2023-05-10T09:14:19;99230.91;;;18.50;100.00
68941;BME280;55982;51.476;7.552;2023-05-10T09:16:45;99233.16;;;18.67;100.00
68941;BME280;55982;51.476;7.552;2023-05-10T09:19:11;99233.38;;;18.99;100.00
68941;BME280;55982;51.476;7.552;2023-05-10T09:21:36;99237.47;;;19.14;100.00
68941;BME280;55982;51.476;7.552;2023-05-10T09:24:06;99247.06;;;18.82;100.00
68941;BME280;55982;51.476;7.552;2023-05-10T09:26:31;99235.41;;;18.50;100.00
68941;BME280;55982;51.476;7.552;2023-05-10T09:28:59;99244.72;;;18.66;100.00
68941;BME280;55982;51.476;7.552;2023-05-10T09:31:43;99239.38;;;18.90;100.00
68941;BME280;55982;51.476;7.552;2023-05-10T09:34:08;99238.09;;;19.17;100.00
68941;BME280;55982;51.476;7.552;2023-05-10T09:36:34;99243.19;;;19.87;100.00
68941;BME280;55982;51.476;7.552;2023-05-10T09:38:59;99248.50;;;19.87;100.00
68941;BME280;55982;51.476;7.552;2023-05-10T09:41:25;99243.59;;;20.36;100.00
68941;BME280;55982;51.476;7.552;2023-05-10T09:43:55;99253.31;;;20.47;100.00
68941;BME280;55982;51.476;7.552;2023-05-10T09:46:21;99248.13;;;20.98;100.00
68941;BME280;55982;51.476;7.552;2023-05-10T09:48:47;99244.22;;;22.13;100.00
68941;BME280;55982;51.476;7.552;2023-05-10T09:51:23;99242.69;;;21.20;100.00
68941;BME280;55982;51.476;7.552;2023-05-10T09:53:50;99257.13;;;20.65;100.00
68941;BME280;55982;51.476;7.552;2023-05-10T09:56:34;99255.41;;;20.95;100.00
68941;BME280;55982;51.476;7.552;2023-05-10T09:59:04;99244.06;;;21.14;100.00
68941;BME280;55982;51.476;7.552;2023-05-10T10:01:29;99247.34;;;20.12;100.00
68941;BME280;55982;51.476;7.552;2023-05-10T10:03:56;99242.53;;;20.17;100.00
68941;BME280;55982;51.476;7.552;2023-05-10T10:06:23;99246.16;;;20.27;100.00
68941;BME280;55982;51.476;7.552;2023-05-10T10:08:48;99247.75;;;20.50;100.00
68941;BME280;55982;51.476;7.552;2023-05-10T10:11:15;99251.69;;;20.87;100.00
68941;BME280;55982;51.476;7.552;2023-05-10T10:13:40;99252.13;;;21.03;100.00
68941;BME280;55982;51.476;7.552;2023-05-10T10:16:07;99245.44;;;20.77;100.00
68941;BME280;55982;51.476;7.552;2023-05-10T10:18:33;99250.63;;;20.58;100.00
68941;BME280;55982;51.476;7.552;2023-05-10T10:20:59;99244.63;;;20.97;100.00
68941;BME280;55982;51.476;7.552;2023-05-10T10:23:25;99239.09;;;20.89;100.00
68941;BME280;55982;51.476;7.552;2023-05-10T10:25:50;99236.16;;;21.03;100.00
68941;BME280;55982;51.476;7.552;2023-05-10T10:28:24;99244.31;;;21.62;100.00
68941;BME280;55982;51.476;7.552;2023-05-10T10:30:52;99251.06;;;22.06;100.00
68941;BME280;55982;51.476;7.552;2023-05-10T10:33:51;99248.50;;;22.63;100.00
68941;BME280;55982;51.476;7.552;2023-05-10T10:36:20;99243.69;;;22.38;100.00
68941;BME280;55982;51.476;7.552;2023-05-10T10:50:02;99252.88;;;21.35;100.00
68941;BME280;55982;51.476;7.552;2023-05-10T10:57:23;99254.38;;;21.08;100.00
68941;BME280;55982;51.476;7.552;2023-05-10T10:59:48;99248.16;;;20.66;100.00
68941;BME280;55982;51.476;7.552;2023-05-10T11:02:34;99249.91;;;20.13;100.00
68941;BME280;55982;51.476;7.552;2023-05-10T11:05:33;99251.03;;;19.44;100.00
68941;BME280;55982;51.476;7.552;2023-05-10T11:10:37;99259.84;;;18.88;100.00
68941;BME280;55982;51.476;7.552;2023-05-10T11:13:05;99266.44;;;19.28;100.00
68941;BME280;55982;51.476;7.552;2023-05-10T11:15:31;99271.06;;;19.81;100.00
68941;BME280;55982;51.476;7.552;2023-05-10T11:17:57;99273.25;;;19.76;100.00
68941;BME280;55982;51.476;7.552;2023-05-10T11:20:23;99273.25;;;20.73;100.00
68941;BME280;55982;51.476;7.552;2023-05-10T11:22:53;99258.94;;;20.85;100.00
68941;BME280;55982;51.476;7.552;2023-05-10T11:25:19;99268.72;;;21.16;100.00
68941;BME280;55982;51.476;7.552;2023-05-10T11:27:47;99258.09;;;21.76;100.00
68941;BME280;55982;51.476;7.552;2023-05-10T11:30:13;99278.34;;;22.38;100.00
68941;BME280;55982;51.476;7.552;2023-05-10T11:32:40;99284.13;;;23.00;100.00
68941;BME280;55982;51.476;7.552;2023-05-10T11:35:10;99285.56;;;22.95;100.00
68941;BME280;55982;51.476;7.552;2023-05-10T11:37:35;99289.84;;;24.17;100.00
68941;BME280;55982;51.476;7.552;2023-05-10T11:40:01;99285.44;;;23.61;100.00
68941;BME280;55982;51.476;7.552;2023-05-10T11:42:28;99286.63;;;21.86;100.00
68941;BME280;55982;51.476;7.552;2023-05-10T11:44:53;99294.50;;;20.84;100.00
68941;BME280;55982;51.476;7.552;2023-05-10T11:47:19;99294.81;;;20.27;100.00
68941;BME280;55982;51.476;7.552;2023-05-10T11:49:45;99304.38;;;20.93;100.00
68941;BME280;55982;51.476;7.552;2023-05-10T11:52:11;99296.09;;;21.28;100.00
68941;BME280;55982;51.476;7.552;2023-05-10T11:54:37;99301.34;;;20.66;100.00
68941;BME280;55982;51.476;7.552;2023-05-10T11:57:02;99311.19;;;20.75;100.00
68941;BME280;55982;51.476;7.552;2023-05-10T11:59:28;99304.34;;;20.61;100.00
68941;BME280;55982;51.476;7.552;2023-05-10T12:01:54;99310.66;;;19.95;100.00
68941;BME280;55982;51.476;7.552;2023-05-10T12:04:19;99304.97;;;20.11;100.00
68941;BME280;55982;51.476;7.552;2023-05-10T12:06:45;99310.34;;;20.43;100.00
68941;BME280;55982;51.476;7.552;2023-05-10T12:09:12;99315.81;;;20.30;100.00
68941;BME280;55982;51.476;7.552;2023-05-10T12:11:40;99321.38;;;20.05;100.00
68941;BME280;55982;51.476;7.552;2023-05-10T12:14:06;99318.38;;;19.76;100.00
68941;BME280;55982;51.476;7.552;2023-05-10T12:16:32;99328.84;;;19.45;100.00
68941;BME280;55982;51.476;7.552;2023-05-10T12:19:00;99322.66;;;19.33;100.00
68941;BME280;55982;51.476;7.552;2023-05-10T12:21:28;99316.19;;;18.79;100.00
68941;BME280;55982;51.476;7.552;2023-05-10T12:23:58;99318.22;;;18.15;100.00
68941;BME280;55982;51.476;7.552;2023-05-10T12:26:24;99324.00;;;18.33;100.00
68941;BME280;55982;51.476;7.552;2023-05-10T12:28:52;99324.00;;;18.46;100.00
68941;BME280;55982;51.476;7.552;2023-05-10T12:31:18;99327.47;;;18.70;100.00
68941;BME280;55982;51.476;7.552;2023-05-10T12:33:44;99332.44;;;18.98;100.00
68941;BME280;55982;51.476;7.552;2023-05-10T12:36:11;99333.88;;;19.02;100.00
68941;BME280;55982;51.476;7.552;2023-05-10T12:38:42;99325.66;;;18.94;100.00
68941;BME280;55982;51.476;7.552;2023-05-10T12:41:17;99327.03;;;19.56;100.00
68941;BME280;55982;51.476;7.552;2023-05-10T12:43:42;99329.22;;;20.29;100.00
68941;BME280;55982;51.476;7.552;2023-05-10T12:46:12;99324.91;;;20.91;100.00
68941;BME280;55982;51.476;7.552;2023-05-10T12:48:39;99332.03;;;21.63;100.00
68941;BME280;55982;51.476;7.552;2023-05-10T12:51:05;99333.97;;;21.61;100.00
68941;BME280;55982;51.476;7.552;2023-05-10T12:53:34;99331.91;;;21.44;100.00
68941;BME280;55982;51.476;7.552;2023-05-10T12:56:00;99336.69;;;20.77;100.00
68941;BME280;55982;51.476;7.552;2023-05-10T12:58:25;99330.41;;;20.36;100.00
68941;BME280;55982;51.476;7.552;2023-05-10T13:00:51;99341.41;;;19.98;100.00
68941;BME280;55982;51.476;7.552;2023-05-10T13:03:17;99348.97;;;19.36;100.00
68941;BME280;55982;51.476;7.552;2023-05-10T13:05:42;99341.94;;;19.00;100.00
68941;BME280;55982;51.476;7.552;2023-05-10T13:08:07;99348.78;;;18.92;100.00
68941;BME280;55982;51.476;7.552;2023-05-10T13:10:33;99342.47;;;18.82;100.00
68941;BME280;55982;51.476;7.552;2023-05-10T13:12:58;99335.28;;;18.95;100.00
68941;BME280;55982;51.476;7.552;2023-05-10T13:15:24;99347.09;;;19.82;100.00
68941;BME280;55982;51.476;7.552;2023-05-10T13:17:50;99344.13;;;20.63;100.00
68941;BME280;55982;51.476;7.552;2023-05-10T13:20:15;99344.44;;;20.38;100.00
68941;BME280;55982;51.476;7.552;2023-05-10T13:22:42;99343.72;;;20.36;100.00
68941;BME280;55982;51.476;7.552;2023-05-10T13:25:08;99343.63;;;20.69;100.00
68941;BME280;55982;51.476;7.552;2023-05-10T13:27:33;99342.44;;;21.25;100.00